Time;durP1;ratioP1;P1;durP2;ratioP2;P2;SDS_P1;SDS_P2;PMS_P1;PMS_P2;Temp;Humidity;BMP_temperature;BMP_pressure;BME280_temperature;BME280_humidity;BME280_pressure;Samples;Min_cycle;Max_cycle;Signal;HPM_P1;HPM_P2
2023/04/21 00:02:26;;;;;;;;;;;7.90;99.90;;;;;;5050822;28;19935;-70
2023/04/21 00:04:55;;;;;;;;;;;8.00;99.90;;;;;;5072354;28;20275;-69
2023/04/21 00:07:21;;;;;;;;;;;8.00;99.90;;;;;;5069812;28;19931;-70
2023/04/21 00:09:47;;;;;;;;;;;8.10;99.90;;;;;;5067089;28;20462;-70
2023/04/21 00:12:12;;;;;;;;;;;8.10;99.90;;;;;;5067485;28;20015;-70
2023/04/21 00:14:38;;;;;;;;;;;8.00;99.90;;;;;;5068119;28;20015;-70
2023/04/21 00:17:04;;;;;;;;;;;8.00;99.90;;;;;;5069895;28;19947;-70
2023/04/21 00:19:30;;;;;;;;;;;8.00;99.90;;;;;;5069704;28;20362;-70
2023/04/21 00:21:58;;;;;;;;;;;8.00;99.90;;;;;;5054830;28;20050;-70
2023/04/21 00:24:24;;;;;;;;;;;7.90;99.90;;;;;;5071467;28;20022;-70
2023/04/21 00:26:50;;;;;;;;;;;7.90;99.90;;;;;;5073752;28;20671;-70
2023/04/21 00:29:15;;;;;;;;;;;7.90;99.90;;;;;;5073109;28;19925;-70
2023/04/21 00:31:42;;;;;;;;;;;7.90;99.90;;;;;;5071431;28;19932;-70
2023/04/21 00:34:08;;;;;;;;;;;7.90;99.90;;;;;;5073808;28;19924;-70
2023/04/21 00:36:34;;;;;;;;;;;7.90;99.90;;;;;;5072944;28;19974;-70
2023/04/21 00:39:00;;;;;;;;;;;7.80;99.90;;;;;;5068458;28;20021;-70
2023/04/21 00:41:27;;;;;;;;;;;7.80;99.90;;;;;;5089424;28;19939;-70
2023/04/21 00:44:02;;;;;;;;;;;7.70;99.90;;;;;;5068457;28;20294;-70
2023/04/21 00:46:28;;;;;;;;;;;7.70;99.90;;;;;;5051418;28;19947;-70
2023/04/21 00:48:53;;;;;;;;;;;7.70;99.90;;;;;;5070451;28;20449;-71
2023/04/21 00:51:19;;;;;;;;;;;7.70;99.90;;;;;;5066355;28;19935;-70
2023/04/21 00:53:45;;;;;;;;;;;7.70;99.90;;;;;;5073267;28;19947;-70
2023/04/21 00:56:11;;;;;;;;;;;7.70;99.90;;;;;;5067656;28;19925;-70
2023/04/21 00:58:37;;;;;;;;;;;7.60;99.90;;;;;;5070468;28;19971;-69
2023/04/21 01:01:04;;;;;;;;;;;7.60;99.90;;;;;;5070768;28;19928;-69
2023/04/21 01:03:31;;;;;;;;;;;7.60;99.90;;;;;;5068601;28;21560;-70
2023/04/21 01:05:57;;;;;;;;;;;7.60;99.90;;;;;;5073004;28;20024;-70
2023/04/21 01:08:22;;;;;;;;;;;7.60;99.90;;;;;;5071918;28;20007;-69
2023/04/21 01:10:48;;;;;;;;;;;7.60;99.90;;;;;;5069943;28;19943;-70
2023/04/21 01:13:13;;;;;;;;;;;7.50;99.90;;;;;;5072197;28;19928;-70
2023/04/21 01:15:39;;;;;;;;;;;7.60;99.90;;;;;;5074821;28;19924;-69
2023/04/21 01:18:04;;;;;;;;;;;7.50;99.90;;;;;;5051831;28;20311;-69
2023/04/21 01:20:30;;;;;;;;;;;7.50;99.90;;;;;;5068166;28;19960;-69
2023/04/21 01:22:55;;;;;;;;;;;7.50;99.90;;;;;;5042607;28;19970;-69
2023/04/21 01:25:24;;;;;;;;;;;7.50;99.90;;;;;;5080624;28;19924;-69
2023/04/21 01:27:51;;;;;;;;;;;7.40;99.90;;;;;;5052638;28;20007;-70
2023/04/21 01:30:16;;;;;;;;;;;7.40;99.90;;;;;;5071396;28;19925;-70
2023/04/21 01:32:42;;;;;;;;;;;7.40;99.90;;;;;;5071178;28;19931;-71
2023/04/21 01:35:08;;;;;;;;;;;7.40;99.90;;;;;;5070909;28;20301;-68
2023/04/21 01:37:34;;;;;;;;;;;7.40;99.90;;;;;;5070625;28;19925;-68
2023/04/21 01:40:00;;;;;;;;;;;7.50;99.90;;;;;;5063572;28;19975;-68
2023/04/21 01:42:27;;;;;;;;;;;7.40;99.90;;;;;;5072556;28;19970;-68
2023/04/21 01:44:52;;;;;;;;;;;7.40;99.90;;;;;;5059791;28;19928;-68
2023/04/21 01:47:18;;;;;;;;;;;7.50;99.90;;;;;;5051866;28;19924;-69
2023/04/21 01:49:44;;;;;;;;;;;7.50;99.90;;;;;;5070774;28;20482;-69
2023/04/21 01:52:10;;;;;;;;;;;7.50;99.90;;;;;;5069710;28;20338;-69
2023/04/21 01:54:35;;;;;;;;;;;7.40;99.90;;;;;;5069564;28;20003;-69
2023/04/21 01:57:01;;;;;;;;;;;7.40;99.90;;;;;;5071221;28;20015;-70
2023/04/21 01:59:27;;;;;;;;;;;7.50;99.90;;;;;;5065276;28;19943;-69
2023/04/21 02:01:53;;;;;;;;;;;7.40;99.90;;;;;;5065856;28;19936;-70
2023/04/21 02:04:19;;;;;;;;;;;7.40;99.90;;;;;;5051326;28;20436;-69
2023/04/21 02:06:44;;;;;;;;;;;7.40;99.90;;;;;;5070989;28;19936;-69
2023/04/21 02:09:10;;;;;;;;;;;7.40;99.90;;;;;;5051038;28;20301;-69
2023/04/21 02:11:36;;;;;;;;;;;7.40;99.90;;;;;;5071943;28;19970;-70
2023/04/21 02:14:01;;;;;;;;;;;7.30;99.90;;;;;;5067286;28;19925;-69
2023/04/21 02:16:27;;;;;;;;;;;7.40;99.90;;;;;;5053050;28;19924;-70
2023/04/21 02:18:53;;;;;;;;;;;7.30;99.90;;;;;;5069662;28;20038;-70
2023/04/21 02:21:20;;;;;;;;;;;7.30;99.90;;;;;;5070147;28;19925;-69
2023/04/21 02:23:45;;;;;;;;;;;7.30;99.90;;;;;;5070566;28;19932;-69
2023/04/21 02:26:11;;;;;;;;;;;7.20;99.90;;;;;;5070681;28;19993;-69
2023/04/21 02:28:36;;;;;;;;;;;7.20;99.90;;;;;;5050695;28;20451;-69
2023/04/21 02:31:02;;;;;;;;;;;7.20;99.90;;;;;;5069895;28;19933;-69
2023/04/21 02:33:28;;;;;;;;;;;7.20;99.90;;;;;;5070436;28;19928;-69
2023/04/21 02:35:54;;;;;;;;;;;7.10;99.90;;;;;;5071653;28;19925;-69
2023/04/21 02:38:19;;;;;;;;;;;7.20;99.90;;;;;;5068513;28;19925;-69
2023/04/21 02:40:45;;;;;;;;;;;7.20;99.90;;;;;;5068542;28;20329;-70
2023/04/21 02:43:12;;;;;;;;;;;7.20;99.90;;;;;;5069693;28;19993;-70
2023/04/21 02:45:37;;;;;;;;;;;7.20;99.90;;;;;;5069755;28;19932;-70
2023/04/21 02:48:03;;;;;;;;;;;7.20;99.90;;;;;;5070389;28;19924;-70
2023/04/21 02:50:29;;;;;;;;;;;7.30;99.90;;;;;;5045780;28;19925;-70
2023/04/21 02:52:54;;;;;;;;;;;7.20;99.90;;;;;;5066667;28;19931;-70
2023/04/21 02:55:21;;;;;;;;;;;7.30;99.90;;;;;;5070324;28;19925;-70
2023/04/21 02:57:47;;;;;;;;;;;7.30;99.90;;;;;;5052124;28;19930;-71
2023/04/21 03:00:12;;;;;;;;;;;7.30;99.90;;;;;;5040863;28;20011;-70
2023/04/21 03:02:38;;;;;;;;;;;7.30;99.90;;;;;;5066758;28;19924;-70
2023/04/21 03:05:05;;;;;;;;;;;7.40;99.90;;;;;;5068380;28;19971;-70
2023/04/21 03:07:30;;;;;;;;;;;7.30;99.90;;;;;;5065096;28;20278;-70
2023/04/21 03:09:56;;;;;;;;;;;7.40;99.90;;;;;;5068916;28;19924;-70
2023/04/21 03:12:21;;;;;;;;;;;7.30;99.90;;;;;;5070331;28;20290;-70
2023/04/21 03:14:47;;;;;;;;;;;7.50;99.90;;;;;;5068904;28;19925;-70
2023/04/21 03:17:12;;;;;;;;;;;7.30;99.90;;;;;;5037428;28;19924;-70
2023/04/21 03:19:38;;;;;;;;;;;7.30;99.90;;;;;;5072749;28;20326;-71
2023/04/21 03:22:06;;;;;;;;;;;7.30;99.90;;;;;;5054275;28;20007;-70
2023/04/21 03:24:32;;;;;;;;;;;7.30;99.90;;;;;;5073634;28;19982;-70
2023/04/21 03:26:58;;;;;;;;;;;7.30;99.90;;;;;;5073093;28;19971;-69
2023/04/21 03:29:24;;;;;;;;;;;7.40;99.90;;;;;;5075135;28;19931;-69
2023/04/21 03:31:49;;;;;;;;;;;7.30;99.90;;;;;;5072472;28;19925;-69
2023/04/21 03:34:15;;;;;;;;;;;7.40;99.90;;;;;;5073188;28;19994;-69
2023/04/21 03:36:40;;;;;;;;;;;7.30;99.90;;;;;;5068925;28;20370;-70
2023/04/21 03:39:06;;;;;;;;;;;7.30;99.90;;;;;;5075334;28;19924;-70
2023/04/21 03:41:34;;;;;;;;;;;7.40;99.90;;;;;;5073911;28;20374;-69
2023/04/21 03:44:00;;;;;;;;;;;7.40;99.90;;;;;;5071830;28;19947;-71
2023/04/21 03:46:26;;;;;;;;;;;7.40;99.90;;;;;;5072559;28;19986;-69
2023/04/21 03:48:54;;;;;;;;;;;7.40;99.90;;;;;;5073353;28;19924;-70
2023/04/21 03:51:20;;;;;;;;;;;7.50;99.90;;;;;;5052585;28;20301;-69
2023/04/21 03:53:46;;;;;;;;;;;7.50;99.90;;;;;;5070382;28;19925;-70
2023/04/21 03:56:11;;;;;;;;;;;7.50;99.90;;;;;;5070636;28;19931;-69
2023/04/21 03:58:37;;;;;;;;;;;7.50;99.90;;;;;;5073126;28;19931;-70
2023/04/21 04:01:06;;;;;;;;;;;7.50;99.90;;;;;;5073254;28;19991;-69
2023/04/21 04:03:32;;;;;;;;;;;7.50;99.90;;;;;;5069047;28;19977;-69
2023/04/21 04:05:57;;;;;;;;;;;8.00;99.90;;;;;;5071188;28;19928;-70
2023/04/21 04:08:23;;;;;;;;;;;7.50;99.90;;;;;;5072103;28;19932;-70
2023/04/21 04:10:48;;;;;;;;;;;7.50;99.90;;;;;;5055263;28;20036;-69
2023/04/21 04:13:14;;;;;;;;;;;7.50;99.90;;;;;;5071450;28;19932;-70
2023/04/21 04:15:40;;;;;;;;;;;7.50;99.90;;;;;;5053134;28;20417;-70
2023/04/21 04:18:05;;;;;;;;;;;7.50;99.90;;;;;;5073032;28;19936;-70
2023/04/21 04:20:31;;;;;;;;;;;7.50;99.90;;;;;;5070473;28;19924;-70
2023/04/21 04:22:57;;;;;;;;;;;7.50;99.90;;;;;;5050048;28;19932;-70
2023/04/21 04:25:22;;;;;;;;;;;7.50;99.90;;;;;;5068570;28;20035;-69
2023/04/21 04:27:49;;;;;;;;;;;7.60;99.90;;;;;;5073299;28;19924;-69
2023/04/21 04:30:14;;;;;;;;;;;7.60;99.90;;;;;;5071148;28;20348;-70
2023/04/21 04:32:40;;;;;;;;;;;7.70;99.90;;;;;;5073320;28;19928;-69
2023/04/21 04:35:06;;;;;;;;;;;7.60;99.90;;;;;;5069987;28;20051;-70
2023/04/21 04:37:33;;;;;;;;;;;7.60;99.90;;;;;;5066435;28;19924;-69
2023/04/21 04:39:59;;;;;;;;;;;7.80;99.90;;;;;;5069391;28;19925;-69
2023/04/21 04:42:24;;;;;;;;;;;7.70;99.90;;;;;;5073796;28;19932;-70
2023/04/21 04:44:53;;;;;;;;;;;7.60;99.90;;;;;;5069791;28;19925;-69
2023/04/21 04:47:19;;;;;;;;;;;7.60;99.90;;;;;;5073700;28;20301;-69
2023/04/21 04:49:44;;;;;;;;;;;7.60;99.90;;;;;;5052127;28;19924;-69
2023/04/21 04:52:10;;;;;;;;;;;7.60;99.90;;;;;;5073651;28;20046;-69
2023/04/21 04:54:36;;;;;;;;;;;7.70;99.90;;;;;;5065420;28;19964;-70
2023/04/21 04:57:01;;;;;;;;;;;7.60;99.90;;;;;;5073454;28;20368;-70
2023/04/21 04:59:27;;;;;;;;;;;7.70;99.90;;;;;;5067688;28;19931;-69
2023/04/21 05:01:56;;;;;;;;;;;7.80;99.90;;;;;;5070714;28;20398;-70
2023/04/21 05:04:21;;;;;;;;;;;7.70;99.90;;;;;;5066175;28;20435;-70
2023/04/21 05:06:47;;;;;;;;;;;7.80;99.90;;;;;;5068490;28;19924;-70
2023/04/21 05:09:13;;;;;;;;;;;7.90;99.90;;;;;;5069656;28;19939;-69
2023/04/21 05:11:38;;;;;;;;;;;7.90;99.90;;;;;;5069105;28;20022;-69
2023/04/21 05:14:04;;;;;;;;;;;7.90;99.90;;;;;;5064421;28;19928;-69
2023/04/21 05:16:29;;;;;;;;;;;8.00;99.90;;;;;;5064230;28;20027;-69
2023/04/21 05:18:55;;;;;;;;;;;8.00;99.90;;;;;;5062968;28;20397;-69
2023/04/21 05:21:26;;;;;;;;;;;8.10;99.90;;;;;;5065426;28;20419;-69
2023/04/21 05:23:52;;;;;;;;;;;8.10;99.90;;;;;;5069158;28;20015;-69
2023/04/21 05:26:21;;;;;;;;;;;8.20;99.90;;;;;;5069119;28;20444;-69
2023/04/21 05:28:47;;;;;;;;;;;8.20;99.90;;;;;;5069017;28;19929;-70
2023/04/21 05:31:12;;;;;;;;;;;8.20;99.90;;;;;;5044776;28;19943;-69
2023/04/21 05:33:38;;;;;;;;;;;8.30;99.90;;;;;;5071493;28;19924;-70
2023/04/21 05:36:08;;;;;;;;;;;8.40;99.90;;;;;;5063992;28;19932;-70
2023/04/21 05:38:34;;;;;;;;;;;8.60;99.90;;;;;;5067671;28;20333;-70
2023/04/21 05:40:59;;;;;;;;;;;8.90;99.90;;;;;;5065114;28;19931;-70
2023/04/21 05:43:25;;;;;;;;;;;9.10;99.90;;;;;;5068776;28;19925;-70
2023/04/21 05:45:51;;;;;;;;;;;9.20;99.90;;;;;;5070915;28;20264;-70
2023/04/21 05:48:16;;;;;;;;;;;9.30;99.90;;;;;;5053800;28;20413;-70
2023/04/21 05:50:42;;;;;;;;;;;9.20;99.90;;;;;;5069006;28;19931;-71
2023/04/21 05:53:07;;;;;;;;;;;9.20;99.90;;;;;;5049073;28;19933;-70
2023/04/21 05:55:33;;;;;;;;;;;9.10;99.90;;;;;;5066486;28;19924;-70
2023/04/21 05:57:59;;;;;;;;;;;9.10;99.90;;;;;;5068814;28;19928;-70
2023/04/21 06:00:24;;;;;;;;;;;9.20;99.90;;;;;;5063414;28;20374;-70
2023/04/21 06:02:50;;;;;;;;;;;9.20;99.90;;;;;;5064313;28;19931;-70
2023/04/21 06:05:16;;;;;;;;;;;9.30;99.90;;;;;;5053909;28;20298;-70
2023/04/21 06:07:41;;;;;;;;;;;9.30;99.90;;;;;;5054436;28;19924;-70
2023/04/21 06:10:07;;;;;;;;;;;9.50;99.90;;;;;;5071823;28;19954;-71
2023/04/21 06:12:33;;;;;;;;;;;9.60;99.90;;;;;;5069268;28;19971;-71
2023/04/21 06:14:58;;;;;;;;;;;9.70;99.90;;;;;;5063964;28;20366;-71
2023/04/21 06:17:24;;;;;;;;;;;9.90;99.90;;;;;;5067455;28;19932;-71
2023/04/21 06:19:52;;;;;;;;;;;10.20;99.90;;;;;;5067327;28;19931;-71
2023/04/21 06:22:23;;;;;;;;;;;10.60;99.90;;;;;;5066182;28;20345;-71
2023/04/21 06:24:48;;;;;;;;;;;10.80;99.90;;;;;;5062908;28;19931;-71
2023/04/21 06:27:14;;;;;;;;;;;11.00;99.90;;;;;;5071835;28;19928;-71
2023/04/21 06:29:41;;;;;;;;;;;11.30;99.90;;;;;;5069430;28;19924;-71
2023/04/21 06:32:07;;;;;;;;;;;11.60;99.90;;;;;;5072210;28;19969;-69
2023/04/21 06:34:32;;;;;;;;;;;11.70;99.90;;;;;;5063711;28;19925;-70
2023/04/21 06:36:58;;;;;;;;;;;11.80;99.90;;;;;;5052471;28;20420;-70
2023/04/21 06:39:23;;;;;;;;;;;11.90;99.90;;;;;;5057467;28;19925;-70
2023/04/21 06:41:49;;;;;;;;;;;11.70;99.90;;;;;;5068263;28;19924;-70
2023/04/21 06:44:15;;;;;;;;;;;11.50;99.90;;;;;;5070757;28;19932;-72
2023/04/21 06:46:40;;;;;;;;;;;11.40;99.90;;;;;;5068920;28;19994;-70
2023/04/21 06:49:06;;;;;;;;;;;11.40;99.90;;;;;;5073753;28;19924;-70
2023/04/21 06:51:32;;;;;;;;;;;11.60;99.90;;;;;;5055879;28;19924;-70
2023/04/21 06:53:57;;;;;;;;;;;11.90;99.90;;;;;;5066367;28;19931;-71
2023/04/21 06:56:23;;;;;;;;;;;12.00;99.90;;;;;;5056843;28;19929;-70
2023/04/21 06:58:48;;;;;;;;;;;12.10;99.90;;;;;;5066360;28;19931;-70
2023/04/21 07:01:14;;;;;;;;;;;12.10;99.90;;;;;;5076456;28;20374;-69
2023/04/21 07:03:39;;;;;;;;;;;12.10;99.90;;;;;;5040939;28;20390;-70
2023/04/21 07:06:05;;;;;;;;;;;11.90;99.90;;;;;;5056715;28;19924;-70
2023/04/21 07:08:31;;;;;;;;;;;11.70;99.90;;;;;;5056318;28;20406;-70
2023/04/21 07:10:56;;;;;;;;;;;11.60;99.90;;;;;;5056320;28;19976;-70
2023/04/21 07:13:22;;;;;;;;;;;11.60;99.90;;;;;;5060601;28;19968;-70
2023/04/21 07:15:48;;;;;;;;;;;11.60;99.90;;;;;;5067685;28;19928;-70
2023/04/21 07:18:13;;;;;;;;;;;11.60;99.90;;;;;;5062154;28;19924;-71
2023/04/21 07:20:39;;;;;;;;;;;11.50;99.90;;;;;;5075407;28;20007;-70
2023/04/21 07:23:05;;;;;;;;;;;11.60;99.90;;;;;;5066044;28;19924;-70
2023/04/21 07:25:30;;;;;;;;;;;11.70;99.90;;;;;;5075605;28;19982;-70
2023/04/21 07:27:56;;;;;;;;;;;11.80;99.90;;;;;;5066590;28;20365;-71
2023/04/21 07:30:21;;;;;;;;;;;11.80;99.90;;;;;;5051605;28;20510;-71
2023/04/21 07:32:47;;;;;;;;;;;12.10;99.90;;;;;;5075310;28;20315;-71
2023/04/21 07:35:12;;;;;;;;;;;12.10;99.90;;;;;;5075452;28;20394;-71
2023/04/21 07:37:39;;;;;;;;;;;12.20;99.90;;;;;;5039059;28;19925;-71
2023/04/21 07:40:05;;;;;;;;;;;12.30;99.90;;;;;;5055965;28;19924;-71
2023/04/21 07:42:31;;;;;;;;;;;12.40;99.90;;;;;;5060676;28;19931;-71
2023/04/21 07:44:56;;;;;;;;;;;12.40;99.90;;;;;;5057799;28;20028;-71
2023/04/21 07:47:22;;;;;;;;;;;12.60;99.90;;;;;;5064060;28;19925;-70
2023/04/21 07:49:48;;;;;;;;;;;12.70;99.90;;;;;;5072127;28;19934;-71
2023/04/21 07:52:16;;;;;;;;;;;12.80;99.90;;;;;;5075615;28;19999;-70
2023/04/21 07:54:41;;;;;;;;;;;12.80;99.90;;;;;;5074552;28;20454;-71
2023/04/21 07:57:07;;;;;;;;;;;12.90;99.90;;;;;;5065319;28;19929;-71
2023/04/21 07:59:32;;;;;;;;;;;12.90;99.90;;;;;;5055198;28;20020;-70
2023/04/21 08:01:58;;;;;;;;;;;12.90;99.90;;;;;;5058506;28;19932;-70
2023/04/21 08:04:24;;;;;;;;;;;13.00;99.90;;;;;;5074564;28;19924;-72
2023/04/21 08:06:49;;;;;;;;;;;13.00;99.90;;;;;;5054847;28;19978;-70
2023/04/21 08:09:15;;;;;;;;;;;13.10;99.90;;;;;;5074852;28;19925;-71
2023/04/21 08:11:40;;;;;;;;;;;13.10;99.90;;;;;;5057694;28;20193;-71
2023/04/21 08:14:08;;;;;;;;;;;13.20;99.90;;;;;;5075125;28;19977;-70
2023/04/21 08:16:33;;;;;;;;;;;13.30;99.90;;;;;;5075177;28;19925;-71
2023/04/21 08:18:59;;;;;;;;;;;13.40;99.90;;;;;;5074599;28;19925;-71
2023/04/21 08:21:24;;;;;;;;;;;13.40;99.90;;;;;;5057339;28;19979;-70
2023/04/21 08:23:50;;;;;;;;;;;13.40;99.90;;;;;;5048248;28;20048;-70
2023/04/21 08:26:17;;;;;;;;;;;13.50;99.90;;;;;;5073011;28;19924;-71
2023/04/21 08:28:43;;;;;;;;;;;13.60;99.90;;;;;;5047854;28;19998;-70
2023/04/21 08:31:08;;;;;;;;;;;13.80;99.90;;;;;;5067499;28;20385;-70
2023/04/21 08:33:34;;;;;;;;;;;13.80;99.90;;;;;;5058159;28;19948;-70
2023/04/21 08:36:01;;;;;;;;;;;13.90;99.90;;;;;;5073796;28;20028;-70
2023/04/21 08:38:27;;;;;;;;;;;14.10;99.90;;;;;;5074034;28;19964;-71
2023/04/21 08:40:54;;;;;;;;;;;14.10;99.90;;;;;;5074330;28;20051;-71
2023/04/21 08:43:20;;;;;;;;;;;14.30;99.90;;;;;;5074867;28;20361;-71
2023/04/21 08:45:46;;;;;;;;;;;14.40;99.90;;;;;;5074145;28;19924;-71
2023/04/21 08:48:17;;;;;;;;;;;14.50;99.90;;;;;;5073640;28;19924;-71
2023/04/21 08:50:43;;;;;;;;;;;14.60;99.90;;;;;;5074236;28;20297;-71
2023/04/21 08:53:09;;;;;;;;;;;14.70;99.90;;;;;;5074045;28;19928;-70
2023/04/21 08:55:35;;;;;;;;;;;14.80;99.90;;;;;;5058164;28;19924;-71
2023/04/21 08:58:05;;;;;;;;;;;14.90;99.90;;;;;;5055349;28;19931;-70
2023/04/21 09:00:31;;;;;;;;;;;15.10;99.90;;;;;;5054685;28;19925;-70
2023/04/21 09:02:58;;;;;;;;;;;15.20;99.90;;;;;;5048548;28;20270;-71
2023/04/21 09:05:25;;;;;;;;;;;15.20;99.90;;;;;;5062387;28;20050;-71
2023/04/21 09:07:51;;;;;;;;;;;15.30;99.90;;;;;;5054258;28;19928;-71
2023/04/21 09:10:25;;;;;;;;;;;15.20;99.90;;;;;;5054326;28;19924;-71
2023/04/21 09:12:54;;;;;;;;;;;15.30;99.90;;;;;;5052769;28;19925;-71
2023/04/21 09:15:20;;;;;;;;;;;15.40;99.90;;;;;;5071246;28;19924;-71
2023/04/21 09:17:46;;;;;;;;;;;15.50;99.90;;;;;;5074056;28;20306;-71
2023/04/21 09:20:11;;;;;;;;;;;15.50;99.90;;;;;;5072664;28;19931;-70
2023/04/21 09:22:37;;;;;;;;;;;15.60;99.90;;;;;;5073781;28;19924;-71
2023/04/21 09:25:03;;;;;;;;;;;15.80;99.90;;;;;;5071873;28;19924;-71
2023/04/21 09:27:28;;;;;;;;;;;15.90;99.90;;;;;;5073485;28;19924;-70
2023/04/21 09:29:54;;;;;;;;;;;16.00;99.90;;;;;;5069074;28;19925;-70
2023/04/21 09:32:19;;;;;;;;;;;16.10;99.90;;;;;;5065450;28;19966;-71
2023/04/21 09:34:45;;;;;;;;;;;16.20;99.90;;;;;;5070901;28;19996;-70
2023/04/21 09:37:12;;;;;;;;;;;16.40;99.90;;;;;;5071467;28;19932;-71
2023/04/21 09:39:38;;;;;;;;;;;16.50;99.90;;;;;;5060972;28;19925;-71
2023/04/21 09:42:03;;;;;;;;;;;16.50;99.90;;;;;;5018163;28;19977;-71
2023/04/21 09:44:29;;;;;;;;;;;16.60;99.90;;;;;;5053467;28;20263;-74
2023/04/21 09:47:02;;;;;;;;;;;16.70;99.90;;;;;;5049594;28;19930;-71
2023/04/21 09:49:29;;;;;;;;;;;16.90;99.90;;;;;;5048439;28;19925;-71
2023/04/21 09:51:56;;;;;;;;;;;17.00;99.90;;;;;;5074121;28;19925;-71
2023/04/21 09:54:24;;;;;;;;;;;17.10;99.90;;;;;;5073030;28;20397;-71
2023/04/21 09:56:52;;;;;;;;;;;17.10;99.90;;;;;;5065529;28;19924;-71
2023/04/21 09:59:24;;;;;;;;;;;17.20;99.90;;;;;;5073129;28;19931;-71
2023/04/21 10:01:50;;;;;;;;;;;17.20;99.90;;;;;;5072141;28;19924;-71
2023/04/21 10:04:17;;;;;;;;;;;17.20;99.90;;;;;;5072434;28;19924;-71
2023/04/21 10:06:42;;;;;;;;;;;17.20;99.90;;;;;;5055094;28;20302;-71
2023/04/21 10:09:10;;;;;;;;;;;17.40;99.90;;;;;;5072131;28;19935;-71
2023/04/21 10:11:35;;;;;;;;;;;17.50;99.90;;;;;;5072397;28;19924;-71
2023/04/21 10:14:01;;;;;;;;;;;17.80;99.90;;;;;;5035162;28;19925;-71
2023/04/21 10:16:27;;;;;;;;;;;17.90;99.90;;;;;;5064103;28;19928;-71
2023/04/21 10:18:52;;;;;;;;;;;18.10;99.90;;;;;;5072336;28;19977;-71
2023/04/21 10:21:20;;;;;;;;;;;18.10;99.90;;;;;;5071079;28;19931;-71
2023/04/21 10:23:51;;;;;;;;;;;18.20;99.90;;;;;;5072649;28;19925;-71
2023/04/21 10:26:22;;;;;;;;;;;18.40;99.90;;;;;;5039319;28;19924;-71
2023/04/21 10:28:59;;;;;;;;;;;18.60;99.90;;;;;;5072086;28;19932;-71
2023/04/21 10:31:32;;;;;;;;;;;18.50;99.90;;;;;;5054879;28;19978;-71
2023/04/21 10:34:06;;;;;;;;;;;18.60;99.90;;;;;;5072501;28;19924;-71
2023/04/21 10:36:55;;;;;;;;;;;18.80;99.80;;;;;;5063507;28;20062;-72
2023/04/21 10:39:28;;;;;;;;;;;18.80;99.80;;;;;;5071327;28;19963;-70
2023/04/21 10:41:54;;;;;;;;;;;19.10;99.00;;;;;;5063839;28;19948;-71
2023/04/21 10:44:20;;;;;;;;;;;19.20;99.10;;;;;;5058505;28;19975;-71
2023/04/21 10:46:50;;;;;;;;;;;19.10;98.30;;;;;;5070994;28;19925;-71
2023/04/21 10:49:18;;;;;;;;;;;19.30;98.20;;;;;;5071170;28;19931;-69
2023/04/21 10:51:56;;;;;;;;;;;19.60;97.90;;;;;;5072216;28;19970;-70
2023/04/21 10:54:22;;;;;;;;;;;19.70;97.40;;;;;;5072270;28;20395;-70
2023/04/21 10:56:51;;;;;;;;;;;19.70;97.20;;;;;;5070413;28;19932;-70
2023/04/21 10:59:17;;;;;;;;;;;19.80;96.70;;;;;;5071606;28;20366;-69
2023/04/21 11:01:42;;;;;;;;;;;20.00;96.60;;;;;;5072194;28;19924;-70
2023/04/21 11:04:26;;;;;;;;;;;20.10;95.60;;;;;;5071075;28;19931;-70
2023/04/21 11:07:03;;;;;;;;;;;20.10;95.20;;;;;;5072651;28;20311;-70
2023/04/21 11:09:29;;;;;;;;;;;20.40;94.70;;;;;;5053825;28;19970;-71
2023/04/21 11:12:03;;;;;;;;;;;20.60;94.30;;;;;;5067247;28;19925;-71
2023/04/21 11:14:29;;;;;;;;;;;20.80;93.50;;;;;;5059023;28;19925;-72
2023/04/21 11:16:54;;;;;;;;;;;20.90;92.90;;;;;;5053965;28;20388;-71
2023/04/21 11:19:24;;;;;;;;;;;20.90;91.80;;;;;;5031131;28;19964;-72
2023/04/21 11:21:51;;;;;;;;;;;20.80;91.70;;;;;;5012531;28;19926;-71
2023/04/21 11:24:17;;;;;;;;;;;20.80;90.80;;;;;;5016970;28;19932;-71
2023/04/21 11:26:46;;;;;;;;;;;20.60;91.40;;;;;;5031589;28;19925;-71
2023/04/21 11:29:11;;;;;;;;;;;20.70;91.90;;;;;;5020734;28;19980;-71
2023/04/21 11:31:38;;;;;;;;;;;20.70;91.40;;;;;;5028005;28;19929;-71
2023/04/21 11:34:04;;;;;;;;;;;21.00;91.40;;;;;;5025952;28;19983;-71
2023/04/21 11:36:33;;;;;;;;;;;21.30;91.10;;;;;;5034008;28;19968;-71
2023/04/21 11:39:02;;;;;;;;;;;21.00;89.10;;;;;;5017482;28;19929;-72
2023/04/21 11:41:28;;;;;;;;;;;20.80;90.00;;;;;;5036195;28;19928;-71
2023/04/21 11:43:53;;;;;;;;;;;20.90;89.00;;;;;;5036099;28;19933;-71
2023/04/21 11:46:23;;;;;;;;;;;20.90;86.30;;;;;;5019093;28;19984;-72
2023/04/21 11:49:01;;;;;;;;;;;20.90;88.50;;;;;;5023622;28;19933;-71
2023/04/21 11:51:36;;;;;;;;;;;21.20;87.00;;;;;;5035817;28;19987;-72
2023/04/21 11:54:03;;;;;;;;;;;21.20;86.50;;;;;;5025963;28;20012;-71
2023/04/21 11:56:28;;;;;;;;;;;21.10;86.90;;;;;;5016876;28;20371;-71
2023/04/21 11:58:54;;;;;;;;;;;20.60;86.90;;;;;;5033291;28;19925;-70
2023/04/21 12:01:20;;;;;;;;;;;20.30;87.00;;;;;;5034349;28;19929;-71
2023/04/21 12:03:53;;;;;;;;;;;20.60;90.00;;;;;;5034360;28;20378;-70
2023/04/21 12:06:19;;;;;;;;;;;20.90;88.30;;;;;;5034201;28;19926;-71
2023/04/21 12:08:48;;;;;;;;;;;21.30;85.00;;;;;;5028184;28;19926;-71
2023/04/21 12:11:16;;;;;;;;;;;21.60;84.90;;;;;;5031229;28;19932;-71
2023/04/21 12:13:43;;;;;;;;;;;21.70;85.00;;;;;;5014113;28;19929;-71
2023/04/21 12:16:08;;;;;;;;;;;21.60;83.60;;;;;;5014124;28;20024;-71
2023/04/21 12:18:34;;;;;;;;;;;21.40;82.80;;;;;;5043360;28;21561;-71
2023/04/21 12:21:00;;;;;;;;;;;21.20;83.10;;;;;;5075207;28;19928;-71
2023/04/21 12:23:26;;;;;;;;;;;21.40;85.80;;;;;;5056589;28;19928;-71
2023/04/21 12:25:51;;;;;;;;;;;21.50;84.20;;;;;;5074835;28;19928;-71
2023/04/21 12:28:17;;;;;;;;;;;21.40;85.20;;;;;;5060610;28;19925;-71
2023/04/21 12:30:42;;;;;;;;;;;21.00;84.40;;;;;;5074634;28;19925;-70
2023/04/21 12:33:10;;;;;;;;;;;20.90;86.30;;;;;;5074571;28;19932;-70
2023/04/21 12:35:35;;;;;;;;;;;20.60;86.10;;;;;;5069106;28;19928;-70
2023/04/21 12:38:01;;;;;;;;;;;20.50;84.70;;;;;;5071816;28;19935;-70
2023/04/21 12:40:26;;;;;;;;;;;20.20;85.90;;;;;;5036388;28;19925;-71
2023/04/21 12:42:52;;;;;;;;;;;20.10;86.90;;;;;;5055100;28;20023;-71
2023/04/21 12:45:17;;;;;;;;;;;19.90;82.70;;;;;;5071854;28;19931;-70
2023/04/21 12:47:43;;;;;;;;;;;19.90;82.10;;;;;;5070328;28;19931;-71
2023/04/21 12:50:10;;;;;;;;;;;20.20;83.10;;;;;;5073048;28;19924;-71
2023/04/21 12:52:35;;;;;;;;;;;20.80;84.60;;;;;;5074646;28;19925;-71
2023/04/21 12:55:01;;;;;;;;;;;21.00;83.00;;;;;;5052536;28;20431;-71
2023/04/21 12:57:27;;;;;;;;;;;21.10;84.20;;;;;;5054582;28;19925;-70
2023/04/21 12:59:52;;;;;;;;;;;20.90;83.40;;;;;;5059879;28;20094;-71
2023/04/21 13:02:18;;;;;;;;;;;21.00;83.20;;;;;;5074702;28;19925;-71
2023/04/21 13:04:43;;;;;;;;;;;21.20;80.60;;;;;;5072432;28;19978;-71
2023/04/21 13:07:09;;;;;;;;;;;21.40;79.80;;;;;;5072653;28;19924;-71
2023/04/21 13:09:34;;;;;;;;;;;21.20;77.30;;;;;;5054284;28;19925;-71
2023/04/21 13:12:00;;;;;;;;;;;21.20;76.30;;;;;;5054130;28;19925;-71
2023/04/21 13:14:26;;;;;;;;;;;21.40;76.00;;;;;;5042106;28;19931;-70
2023/04/21 13:16:52;;;;;;;;;;;21.10;74.00;;;;;;5073499;28;19935;-70
2023/04/21 13:19:17;;;;;;;;;;;21.50;73.10;;;;;;5066064;28;19943;-70
2023/04/21 13:21:44;;;;;;;;;;;21.70;72.10;;;;;;5047343;28;19924;-71
2023/04/21 13:24:09;;;;;;;;;;;22.00;71.40;;;;;;5054021;28;19925;-71
2023/04/21 13:26:35;;;;;;;;;;;22.20;69.90;;;;;;5054925;28;19931;-70
2023/04/21 13:29:01;;;;;;;;;;;21.70;70.50;;;;;;5073380;28;19979;-71
2023/04/21 13:31:27;;;;;;;;;;;21.50;71.60;;;;;;5053249;28;19928;-71
2023/04/21 13:33:55;;;;;;;;;;;21.10;70.70;;;;;;5058968;28;19925;-70
2023/04/21 13:36:21;;;;;;;;;;;20.90;72.00;;;;;;5073659;28;20271;-70
2023/04/21 13:38:47;;;;;;;;;;;20.70;69.60;;;;;;5072473;28;19947;-71
2023/04/21 13:41:13;;;;;;;;;;;20.80;67.80;;;;;;5062565;28;20011;-71
2023/04/21 13:43:39;;;;;;;;;;;20.90;68.30;;;;;;5055054;28;19982;-71
2023/04/21 13:46:04;;;;;;;;;;;20.90;67.40;;;;;;5072615;28;19946;-70
2023/04/21 13:48:30;;;;;;;;;;;20.90;66.90;;;;;;5065200;28;19932;-70
2023/04/21 13:50:55;;;;;;;;;;;20.70;66.70;;;;;;5072733;28;20293;-71
2023/04/21 13:53:21;;;;;;;;;;;20.70;67.50;;;;;;5073317;28;19924;-71
2023/04/21 13:55:46;;;;;;;;;;;20.60;67.40;;;;;;5072517;28;19924;-70
2023/04/21 13:58:13;;;;;;;;;;;20.50;67.40;;;;;;5073034;28;19929;-71
2023/04/21 14:00:39;;;;;;;;;;;20.40;67.70;;;;;;5071566;28;19925;-70
2023/04/21 14:03:05;;;;;;;;;;;20.40;67.50;;;;;;5053535;28;19925;-70
2023/04/21 14:05:31;;;;;;;;;;;20.50;67.40;;;;;;5071684;28;20400;-71
2023/04/21 14:07:56;;;;;;;;;;;20.30;67.00;;;;;;5072941;28;19924;-70
2023/04/21 14:10:22;;;;;;;;;;;20.10;66.80;;;;;;5072180;28;19924;-70
2023/04/21 14:12:48;;;;;;;;;;;20.00;66.90;;;;;;5073039;28;19931;-71
2023/04/21 14:15:13;;;;;;;;;;;20.00;68.00;;;;;;5052804;28;19935;-71
2023/04/21 14:17:39;;;;;;;;;;;20.20;67.70;;;;;;5052646;28;19925;-74
2023/04/21 14:20:10;;;;;;;;;;;20.70;67.40;;;;;;5023208;28;20279;-71